sensor_id;sensor_type;location;lat;lon;timestamp;pressure;altitude;pressure_sealevel;temperature;humidity
47742;BME280;33504;52.066;6.096;2024-03-06T00:01:33;101722.26;;;10.12;49.57
47742;BME280;33504;52.066;6.096;2024-03-06T00:04:00;101724.16;;;10.31;49.49
47742;BME280;33504;52.066;6.096;2024-03-06T00:06:28;101726.61;;;10.12;49.51
47742;BME280;33504;52.066;6.096;2024-03-06T00:08:55;101725.06;;;10.14;49.53
47742;BME280;33504;52.066;6.096;2024-03-06T00:11:23;101730.68;;;10.13;49.52
47742;BME280;33504;52.066;6.096;2024-03-06T00:13:50;101733.66;;;10.35;49.40
47742;BME280;33504;52.066;6.096;2024-03-06T00:16:17;101737.27;;;10.14;49.46
47742;BME280;33504;52.066;6.096;2024-03-06T00:18:44;101739.28;;;10.15;49.43
47742;BME280;33504;52.066;6.096;2024-03-06T00:21:12;101739.16;;;10.14;49.42
47742;BME280;33504;52.066;6.096;2024-03-06T00:23:39;101738.16;;;10.14;49.43
47742;BME280;33504;52.066;6.096;2024-03-06T00:26:06;101740.76;;;10.14;49.41
47742;BME280;33504;52.066;6.096;2024-03-06T00:28:33;101743.03;;;10.16;49.54
47742;BME280;33504;52.066;6.096;2024-03-06T00:31:00;101742.57;;;9.95;49.58
47742;BME280;33504;52.066;6.096;2024-03-06T00:33:27;101745.58;;;10.18;49.57
47742;BME280;33504;52.066;6.096;2024-03-06T00:35:54;101743.83;;;9.98;49.56
47742;BME280;33504;52.066;6.096;2024-03-06T00:38:21;101744.58;;;10.21;49.63
47742;BME280;33504;52.066;6.096;2024-03-06T00:40:48;101746.89;;;10.21;49.70
47742;BME280;33504;52.066;6.096;2024-03-06T00:43:15;101751.13;;;10.22;49.70
47742;BME280;33504;52.066;6.096;2024-03-06T00:45:42;101756.50;;;10.44;49.63
47742;BME280;33504;52.066;6.096;2024-03-06T00:48:10;101756.68;;;10.21;49.61
47742;BME280;33504;52.066;6.096;2024-03-06T00:50:37;101755.94;;;10.21;49.63
47742;BME280;33504;52.066;6.096;2024-03-06T00:53:05;101757.23;;;10.22;49.57
47742;BME280;33504;52.066;6.096;2024-03-06T00:55:32;101758.75;;;10.23;49.59
47742;BME280;33504;52.066;6.096;2024-03-06T00:57:59;101760.49;;;10.22;49.57
47742;BME280;33504;52.066;6.096;2024-03-06T01:00:26;101762.61;;;10.22;49.73
47742;BME280;33504;52.066;6.096;2024-03-06T01:02:53;101762.68;;;10.24;49.67
47742;BME280;33504;52.066;6.096;2024-03-06T01:05:20;101763.44;;;10.25;49.62
47742;BME280;33504;52.066;6.096;2024-03-06T01:07:47;101762.58;;;10.02;49.69
47742;BME280;33504;52.066;6.096;2024-03-06T01:10:14;101764.73;;;10.24;49.64
47742;BME280;33504;52.066;6.096;2024-03-06T01:12:42;101767.77;;;10.24;49.69
47742;BME280;33504;52.066;6.096;2024-03-06T01:15:09;101770.13;;;10.25;49.76
47742;BME280;33504;52.066;6.096;2024-03-06T01:17:36;101770.74;;;10.22;49.75
47742;BME280;33504;52.066;6.096;2024-03-06T01:20:05;101774.36;;;10.22;49.77
47742;BME280;33504;52.066;6.096;2024-03-06T01:22:33;101773.56;;;10.21;49.76
47742;BME280;33504;52.066;6.096;2024-03-06T01:25:01;101773.13;;;9.97;49.65
47742;BME280;33504;52.066;6.096;2024-03-06T01:27:28;101772.76;;;9.67;49.64
47742;BME280;33504;52.066;6.096;2024-03-06T01:29:55;101772.21;;;10.12;49.61
47742;BME280;33504;52.066;6.096;2024-03-06T01:32:22;101774.66;;;10.10;49.61
47742;BME280;33504;52.066;6.096;2024-03-06T01:34:49;101775.22;;;10.05;49.61
47742;BME280;33504;52.066;6.096;2024-03-06T01:37:16;101778.39;;;10.02;49.56
47742;BME280;33504;52.066;6.096;2024-03-06T01:39:44;101784.41;;;9.95;49.47
47742;BME280;33504;52.066;6.096;2024-03-06T01:42:11;101787.26;;;9.91;49.46
47742;BME280;33504;52.066;6.096;2024-03-06T01:44:38;101788.53;;;9.84;49.42
47742;BME280;33504;52.066;6.096;2024-03-06T01:47:05;101787.99;;;9.78;49.40
47742;BME280;33504;52.066;6.096;2024-03-06T01:49:32;101783.64;;;9.70;49.38
47742;BME280;33504;52.066;6.096;2024-03-06T01:52:00;101780.70;;;9.61;49.31
47742;BME280;33504;52.066;6.096;2024-03-06T01:54:30;101785.01;;;9.75;49.28
47742;BME280;33504;52.066;6.096;2024-03-06T01:56:59;101786.61;;;9.46;49.26
47742;BME280;33504;52.066;6.096;2024-03-06T01:59:28;101792.16;;;9.61;49.27
47742;BME280;33504;52.066;6.096;2024-03-06T02:01:56;101792.69;;;9.32;49.30
47742;BME280;33504;52.066;6.096;2024-03-06T02:04:24;101795.22;;;9.47;49.30
47742;BME280;33504;52.066;6.096;2024-03-06T02:06:52;101795.86;;;9.41;49.27
47742;BME280;33504;52.066;6.096;2024-03-06T02:09:19;101796.55;;;9.11;49.17
47742;BME280;33504;52.066;6.096;2024-03-06T02:11:46;101802.81;;;9.51;49.11
47742;BME280;33504;52.066;6.096;2024-03-06T02:14:13;101806.04;;;9.15;49.07
47742;BME280;33504;52.066;6.096;2024-03-06T02:16:40;101805.85;;;9.32;49.14
47742;BME280;33504;52.066;6.096;2024-03-06T02:19:08;101805.25;;;9.26;49.32
47742;BME280;33504;52.066;6.096;2024-03-06T02:21:35;101806.27;;;8.94;49.25
47742;BME280;33504;52.066;6.096;2024-03-06T02:24:03;101805.40;;;9.12;49.09
47742;BME280;33504;52.066;6.096;2024-03-06T02:26:30;101810.37;;;8.76;49.01
47742;BME280;33504;52.066;6.096;2024-03-06T02:28:56;101811.41;;;8.66;48.99
47742;BME280;33504;52.066;6.096;2024-03-06T02:31:24;101815.18;;;8.85;49.02
47742;BME280;33504;52.066;6.096;2024-03-06T02:33:51;101814.42;;;8.77;49.04
47742;BME280;33504;52.066;6.096;2024-03-06T02:36:18;101816.96;;;9.19;48.96
47742;BME280;33504;52.066;6.096;2024-03-06T02:38:46;101818.80;;;8.62;48.95
47742;BME280;33504;52.066;6.096;2024-03-06T02:41:13;101819.64;;;9.03;48.95
47742;BME280;33504;52.066;6.096;2024-03-06T02:43:40;101823.01;;;8.48;48.82
47742;BME280;33504;52.066;6.096;2024-03-06T02:46:07;101824.40;;;8.43;48.89
47742;BME280;33504;52.066;6.096;2024-03-06T02:48:34;101827.15;;;8.37;49.00
47742;BME280;33504;52.066;6.096;2024-03-06T02:51:02;101828.22;;;8.54;49.06
47742;BME280;33504;52.066;6.096;2024-03-06T02:53:28;101829.32;;;8.78;49.14
47742;BME280;33504;52.066;6.096;2024-03-06T02:55:55;101828.66;;;8.27;49.27
47742;BME280;33504;52.066;6.096;2024-03-06T02:58:23;101831.80;;;8.48;49.32
47742;BME280;33504;52.066;6.096;2024-03-06T03:00:50;101832.44;;;8.24;49.33
47742;BME280;33504;52.066;6.096;2024-03-06T03:03:17;101833.19;;;8.42;49.23
47742;BME280;33504;52.066;6.096;2024-03-06T03:05:44;101837.39;;;8.39;49.08
47742;BME280;33504;52.066;6.096;2024-03-06T03:08:10;101836.25;;;8.13;49.03
47742;BME280;33504;52.066;6.096;2024-03-06T03:10:37;101835.21;;;8.32;48.93
47742;BME280;33504;52.066;6.096;2024-03-06T03:13:05;101833.46;;;8.25;48.77
47742;BME280;33504;52.066;6.096;2024-03-06T03:15:32;101833.53;;;8.45;48.77
47742;BME280;33504;52.066;6.096;2024-03-06T03:17:59;101833.45;;;8.38;48.84
47742;BME280;33504;52.066;6.096;2024-03-06T03:20:26;101834.66;;;8.06;48.80
47742;BME280;33504;52.066;6.096;2024-03-06T03:22:53;101834.81;;;7.99;48.70
47742;BME280;33504;52.066;6.096;2024-03-06T03:25:20;101835.60;;;8.13;48.80
47742;BME280;33504;52.066;6.096;2024-03-06T03:27:47;101833.57;;;8.07;48.76
47742;BME280;33504;52.066;6.096;2024-03-06T03:30:14;101834.35;;;7.46;48.70
47742;BME280;33504;52.066;6.096;2024-03-06T03:32:41;101839.54;;;7.59;48.69
47742;BME280;33504;52.066;6.096;2024-03-06T03:35:08;101840.82;;;7.79;48.79
47742;BME280;33504;52.066;6.096;2024-03-06T03:37:35;101838.68;;;7.70;48.71
47742;BME280;33504;52.066;6.096;2024-03-06T03:40:03;101838.85;;;7.61;48.68
47742;BME280;33504;52.066;6.096;2024-03-06T03:42:30;101838.73;;;7.55;48.85
47742;BME280;33504;52.066;6.096;2024-03-06T03:44:57;101840.44;;;7.50;48.79
47742;BME280;33504;52.066;6.096;2024-03-06T03:47:24;101843.91;;;7.45;48.74
47742;BME280;33504;52.066;6.096;2024-03-06T03:49:51;101850.59;;;7.60;48.62
47742;BME280;33504;52.066;6.096;2024-03-06T03:52:19;101852.08;;;7.52;48.64
47742;BME280;33504;52.066;6.096;2024-03-06T03:54:46;101850.36;;;7.20;48.63
47742;BME280;33504;52.066;6.096;2024-03-06T03:57:13;101851.94;;;7.36;48.86
47742;BME280;33504;52.066;6.096;2024-03-06T03:59:41;101854.42;;;7.29;48.98
47742;BME280;33504;52.066;6.096;2024-03-06T04:02:08;101857.17;;;7.05;49.29
47742;BME280;33504;52.066;6.096;2024-03-06T04:04:35;101859.14;;;7.28;49.77
47742;BME280;33504;52.066;6.096;2024-03-06T04:07:02;101857.98;;;7.09;49.74
47742;BME280;33504;52.066;6.096;2024-03-06T04:09:29;101857.72;;;7.12;49.75
47742;BME280;33504;52.066;6.096;2024-03-06T04:11:56;101857.85;;;7.35;49.59
47742;BME280;33504;52.066;6.096;2024-03-06T04:14:23;101860.27;;;7.54;49.57
47742;BME280;33504;52.066;6.096;2024-03-06T04:16:50;101861.58;;;7.26;49.38
47742;BME280;33504;52.066;6.096;2024-03-06T04:19:17;101862.62;;;7.10;49.36
47742;BME280;33504;52.066;6.096;2024-03-06T04:21:45;101861.31;;;7.03;49.45
47742;BME280;33504;52.066;6.096;2024-03-06T04:24:12;101861.25;;;6.98;49.39
47742;BME280;33504;52.066;6.096;2024-03-06T04:26:40;101860.85;;;6.96;49.48
47742;BME280;33504;52.066;6.096;2024-03-06T04:29:07;101865.18;;;7.18;49.48
47742;BME280;33504;52.066;6.096;2024-03-06T04:31:35;101866.27;;;6.96;49.45
47742;BME280;33504;52.066;6.096;2024-03-06T04:34:02;101865.18;;;7.18;49.74
47742;BME280;33504;52.066;6.096;2024-03-06T04:36:29;101865.69;;;6.90;49.68
47742;BME280;33504;52.066;6.096;2024-03-06T04:38:56;101865.07;;;6.90;49.70
47742;BME280;33504;52.066;6.096;2024-03-06T04:41:23;101868.70;;;6.70;49.69
47742;BME280;33504;52.066;6.096;2024-03-06T04:43:51;101870.53;;;6.69;49.59
47742;BME280;33504;52.066;6.096;2024-03-06T04:46:18;101874.49;;;6.92;49.77
47742;BME280;33504;52.066;6.096;2024-03-06T04:48:46;101878.25;;;6.94;49.62
47742;BME280;33504;52.066;6.096;2024-03-06T04:51:12;101884.20;;;6.90;49.37
47742;BME280;33504;52.066;6.096;2024-03-06T04:53:40;101884.61;;;6.86;49.13
47742;BME280;33504;52.066;6.096;2024-03-06T04:56:07;101886.31;;;6.79;49.38
47742;BME280;33504;52.066;6.096;2024-03-06T04:58:34;101890.03;;;6.78;49.71
47742;BME280;33504;52.066;6.096;2024-03-06T05:01:01;101888.27;;;7.00;49.66
47742;BME280;33504;52.066;6.096;2024-03-06T05:03:28;101890.79;;;7.01;49.60
47742;BME280;33504;52.066;6.096;2024-03-06T05:05:55;101892.32;;;6.77;49.24
47742;BME280;33504;52.066;6.096;2024-03-06T05:08:22;101894.35;;;6.70;48.97
47742;BME280;33504;52.066;6.096;2024-03-06T05:10:50;101895.55;;;6.85;48.95
47742;BME280;33504;52.066;6.096;2024-03-06T05:13:17;101898.93;;;6.66;49.18
47742;BME280;33504;52.066;6.096;2024-03-06T05:15:44;101902.62;;;6.63;49.12
47742;BME280;33504;52.066;6.096;2024-03-06T05:18:12;101908.34;;;6.82;49.22
47742;BME280;33504;52.066;6.096;2024-03-06T05:20:38;101914.86;;;6.60;49.27
47742;BME280;33504;52.066;6.096;2024-03-06T05:23:06;101918.89;;;6.79;49.00
47742;BME280;33504;52.066;6.096;2024-03-06T05:25:33;101921.10;;;6.77;48.95
47742;BME280;33504;52.066;6.096;2024-03-06T05:27:59;101924.78;;;6.74;48.92
47742;BME280;33504;52.066;6.096;2024-03-06T05:30:26;101927.95;;;6.71;48.95
47742;BME280;33504;52.066;6.096;2024-03-06T05:32:53;101935.36;;;6.70;49.09
47742;BME280;33504;52.066;6.096;2024-03-06T05:35:20;101935.31;;;6.70;48.99
47742;BME280;33504;52.066;6.096;2024-03-06T05:37:47;101943.53;;;6.69;49.24
47742;BME280;33504;52.066;6.096;2024-03-06T05:40:15;101946.92;;;6.46;49.26
47742;BME280;33504;52.066;6.096;2024-03-06T05:42:42;101950.77;;;6.69;49.44
47742;BME280;33504;52.066;6.096;2024-03-06T05:45:09;101955.62;;;6.48;49.61
47742;BME280;33504;52.066;6.096;2024-03-06T05:47:36;101960.45;;;6.77;49.70
47742;BME280;33504;52.066;6.096;2024-03-06T05:50:04;101966.87;;;6.68;49.59
47742;BME280;33504;52.066;6.096;2024-03-06T05:52:31;101972.40;;;6.42;49.76
47742;BME280;33504;52.066;6.096;2024-03-06T05:54:58;101973.74;;;6.43;49.92
47742;BME280;33504;52.066;6.096;2024-03-06T05:57:25;101979.35;;;6.67;49.98
47742;BME280;33504;52.066;6.096;2024-03-06T05:59:52;101982.34;;;6.69;49.87
47742;BME280;33504;52.066;6.096;2024-03-06T06:02:19;101985.04;;;6.47;50.04
47742;BME280;33504;52.066;6.096;2024-03-06T06:04:46;101986.04;;;6.76;50.19
47742;BME280;33504;52.066;6.096;2024-03-06T06:07:14;101983.92;;;6.75;50.09
47742;BME280;33504;52.066;6.096;2024-03-06T06:09:41;101990.05;;;6.73;50.04
47742;BME280;33504;52.066;6.096;2024-03-06T06:12:09;101994.69;;;6.56;50.11
47742;BME280;33504;52.066;6.096;2024-03-06T06:14:36;101999.94;;;6.80;50.02
47742;BME280;33504;52.066;6.096;2024-03-06T06:17:03;102001.52;;;6.60;49.98
47742;BME280;33504;52.066;6.096;2024-03-06T06:19:31;102005.28;;;6.60;49.92
47742;BME280;33504;52.066;6.096;2024-03-06T06:21:58;102010.01;;;6.84;50.11
47742;BME280;33504;52.066;6.096;2024-03-06T06:24:25;102008.06;;;6.87;49.97
47742;BME280;33504;52.066;6.096;2024-03-06T06:26:52;102007.90;;;6.64;49.90
47742;BME280;33504;52.066;6.096;2024-03-06T06:29:19;102009.71;;;6.87;49.81
47742;BME280;33504;52.066;6.096;2024-03-06T06:31:46;102012.82;;;6.86;49.76
47742;BME280;33504;52.066;6.096;2024-03-06T06:34:13;102016.71;;;6.87;49.81
47742;BME280;33504;52.066;6.096;2024-03-06T06:36:45;102020.04;;;6.84;49.88
47742;BME280;33504;52.066;6.096;2024-03-06T06:39:13;102024.22;;;6.82;49.93
47742;BME280;33504;52.066;6.096;2024-03-06T06:41:40;102028.38;;;6.76;49.84
47742;BME280;33504;52.066;6.096;2024-03-06T06:44:06;102033.83;;;6.78;49.97
47742;BME280;33504;52.066;6.096;2024-03-06T06:46:34;102035.05;;;6.59;49.76
47742;BME280;33504;52.066;6.096;2024-03-06T06:49:01;102038.17;;;6.60;49.83
47742;BME280;33504;52.066;6.096;2024-03-06T06:51:28;102039.07;;;6.85;49.60
47742;BME280;33504;52.066;6.096;2024-03-06T06:53:56;102041.75;;;6.64;49.47
47742;BME280;33504;52.066;6.096;2024-03-06T06:56:23;102043.57;;;6.86;49.43
47742;BME280;33504;52.066;6.096;2024-03-06T06:58:51;102047.97;;;6.68;49.56
47742;BME280;33504;52.066;6.096;2024-03-06T07:01:17;102047.17;;;6.91;49.43
47742;BME280;33504;52.066;6.096;2024-03-06T07:03:44;102050.28;;;6.70;49.48
47742;BME280;33504;52.066;6.096;2024-03-06T07:06:12;102049.08;;;6.50;49.38
47742;BME280;33504;52.066;6.096;2024-03-06T07:08:39;102054.78;;;6.79;49.62
47742;BME280;33504;52.066;6.096;2024-03-06T07:11:06;102059.61;;;6.98;49.50
47742;BME280;33504;52.066;6.096;2024-03-06T07:13:33;102061.90;;;7.03;49.57
47742;BME280;33504;52.066;6.096;2024-03-06T07:16:02;102064.61;;;7.10;49.55
47742;BME280;33504;52.066;6.096;2024-03-06T07:18:30;102069.17;;;7.17;49.47
47742;BME280;33504;52.066;6.096;2024-03-06T07:20:57;102073.12;;;7.25;49.40
47742;BME280;33504;52.066;6.096;2024-03-06T07:23:24;102073.51;;;7.10;49.41
47742;BME280;33504;52.066;6.096;2024-03-06T07:25:51;102070.54;;;7.19;49.37
47742;BME280;33504;52.066;6.096;2024-03-06T07:28:18;102073.17;;;7.53;49.31
47742;BME280;33504;52.066;6.096;2024-03-06T07:30:46;102076.08;;;7.41;49.23
47742;BME280;33504;52.066;6.096;2024-03-06T07:33:13;102080.46;;;7.29;49.12
47742;BME280;33504;52.066;6.096;2024-03-06T07:35:40;102086.00;;;7.37;49.13
47742;BME280;33504;52.066;6.096;2024-03-06T07:38:08;102087.95;;;7.51;49.36
47742;BME280;33504;52.066;6.096;2024-03-06T07:40:35;102088.55;;;7.64;49.32
47742;BME280;33504;52.066;6.096;2024-03-06T07:43:01;102095.11;;;7.77;49.38
47742;BME280;33504;52.066;6.096;2024-03-06T07:45:28;102097.68;;;7.92;49.21
47742;BME280;33504;52.066;6.096;2024-03-06T07:47:56;102096.77;;;8.11;49.15
47742;BME280;33504;52.066;6.096;2024-03-06T07:50:22;102098.00;;;8.28;49.06
47742;BME280;33504;52.066;6.096;2024-03-06T07:52:50;102097.02;;;8.47;49.02
47742;BME280;33504;52.066;6.096;2024-03-06T07:55:18;102096.47;;;8.64;48.93
47742;BME280;33504;52.066;6.096;2024-03-06T07:57:45;102097.69;;;8.56;48.80
47742;BME280;33504;52.066;6.096;2024-03-06T08:00:13;102098.65;;;8.72;48.35
47742;BME280;33504;52.066;6.096;2024-03-06T08:02:41;102097.60;;;8.65;48.25
47742;BME280;33504;52.066;6.096;2024-03-06T08:05:09;102100.93;;;8.99;48.24
47742;BME280;33504;52.066;6.096;2024-03-06T08:07:36;102099.34;;;8.87;48.07
47742;BME280;33504;52.066;6.096;2024-03-06T08:10:04;102098.40;;;9.24;48.08
47742;BME280;33504;52.066;6.096;2024-03-06T08:12:31;102098.56;;;9.37;48.05
47742;BME280;33504;52.066;6.096;2024-03-06T08:14:58;102100.50;;;9.53;47.76
47742;BME280;33504;52.066;6.096;2024-03-06T08:17:26;102100.65;;;9.41;47.82
47742;BME280;33504;52.066;6.096;2024-03-06T08:19:53;102104.56;;;9.63;47.84
47742;BME280;33504;52.066;6.096;2024-03-06T08:22:21;102107.82;;;9.92;47.72
47742;BME280;33504;52.066;6.096;2024-03-06T08:24:48;102113.88;;;10.64;47.33
47742;BME280;33504;52.066;6.096;2024-03-06T08:27:15;102119.77;;;10.88;47.00
47742;BME280;33504;52.066;6.096;2024-03-06T08:29:42;102119.32;;;11.17;46.54
47742;BME280;33504;52.066;6.096;2024-03-06T08:32:09;102116.21;;;11.38;45.72
47742;BME280;33504;52.066;6.096;2024-03-06T08:34:36;102120.08;;;11.81;45.11
47742;BME280;33504;52.066;6.096;2024-03-06T08:37:04;102123.85;;;12.13;44.15
47742;BME280;33504;52.066;6.096;2024-03-06T08:39:32;102127.50;;;12.34;43.84
47742;BME280;33504;52.066;6.096;2024-03-06T08:41:59;102129.08;;;12.64;43.71
47742;BME280;33504;52.066;6.096;2024-03-06T08:44:26;102134.02;;;12.95;43.77
47742;BME280;33504;52.066;6.096;2024-03-06T08:46:54;102136.37;;;12.97;43.28
47742;BME280;33504;52.066;6.096;2024-03-06T08:49:21;102141.09;;;13.28;42.76
47742;BME280;33504;52.066;6.096;2024-03-06T08:51:48;102144.86;;;13.48;41.99
47742;BME280;33504;52.066;6.096;2024-03-06T08:54:15;102148.84;;;13.64;42.43
47742;BME280;33504;52.066;6.096;2024-03-06T08:56:43;102157.37;;;13.49;41.75
47742;BME280;33504;52.066;6.096;2024-03-06T08:59:10;102159.64;;;13.50;41.40
47742;BME280;33504;52.066;6.096;2024-03-06T09:01:37;102160.24;;;13.67;41.53
47742;BME280;33504;52.066;6.096;2024-03-06T09:04:05;102163.92;;;13.59;41.61
47742;BME280;33504;52.066;6.096;2024-03-06T09:06:32;102165.35;;;13.79;41.42
47742;BME280;33504;52.066;6.096;2024-03-06T09:09:00;102168.59;;;14.17;41.43
47742;BME280;33504;52.066;6.096;2024-03-06T09:11:26;102170.54;;;14.33;41.33
47742;BME280;33504;52.066;6.096;2024-03-06T09:13:53;102176.45;;;14.12;40.77
47742;BME280;33504;52.066;6.096;2024-03-06T09:16:21;102181.34;;;14.37;40.81
47742;BME280;33504;52.066;6.096;2024-03-06T09:18:47;102183.49;;;14.42;40.41
47742;BME280;33504;52.066;6.096;2024-03-06T09:21:15;102185.01;;;13.95;40.08
47742;BME280;33504;52.066;6.096;2024-03-06T09:23:42;102187.64;;;13.70;40.64
47742;BME280;33504;52.066;6.096;2024-03-06T09:26:09;102190.87;;;13.43;41.41
47742;BME280;33504;52.066;6.096;2024-03-06T09:28:36;102200.27;;;13.51;41.91
47742;BME280;33504;52.066;6.096;2024-03-06T09:31:03;102201.22;;;12.57;42.38
47742;BME280;33504;52.066;6.096;2024-03-06T09:33:30;102209.14;;;12.24;43.26
47742;BME280;33504;52.066;6.096;2024-03-06T09:35:58;102212.10;;;12.55;43.63
47742;BME280;33504;52.066;6.096;2024-03-06T09:38:25;102213.96;;;12.15;43.96
47742;BME280;33504;52.066;6.096;2024-03-06T09:40:56;102218.41;;;11.88;44.44
47742;BME280;33504;52.066;6.096;2024-03-06T09:43:23;102224.85;;;11.66;44.78
47742;BME280;33504;52.066;6.096;2024-03-06T09:45:52;102227.47;;;11.58;44.79
47742;BME280;33504;52.066;6.096;2024-03-06T09:48:21;102231.64;;;11.19;45.53
47742;BME280;33504;52.066;6.096;2024-03-06T09:50:49;102235.63;;;11.11;46.12
47742;BME280;33504;52.066;6.096;2024-03-06T09:53:17;102235.99;;;10.97;46.26
47742;BME280;33504;52.066;6.096;2024-03-06T09:55:46;102241.90;;;10.91;46.57
47742;BME280;33504;52.066;6.096;2024-03-06T09:58:15;102244.89;;;10.72;46.22
47742;BME280;33504;52.066;6.096;2024-03-06T10:00:42;102244.71;;;10.58;46.48
47742;BME280;33504;52.066;6.096;2024-03-06T10:03:10;102246.23;;;10.96;47.21
47742;BME280;33504;52.066;6.096;2024-03-06T10:05:38;102249.08;;;10.91;47.20
47742;BME280;33504;52.066;6.096;2024-03-06T10:08:06;102249.86;;;10.79;47.16
47742;BME280;33504;52.066;6.096;2024-03-06T10:10:33;102252.90;;;10.67;47.62
47742;BME280;33504;52.066;6.096;2024-03-06T10:13:00;102253.53;;;10.40;47.92
47742;BME280;33504;52.066;6.096;2024-03-06T10:15:27;102253.75;;;10.55;47.80
47742;BME280;33504;52.066;6.096;2024-03-06T10:18:11;102253.95;;;10.87;47.64
47742;BME280;33504;52.066;6.096;2024-03-06T10:20:38;102254.15;;;10.80;47.77
47742;BME280;33504;52.066;6.096;2024-03-06T10:23:05;102256.26;;;10.98;47.46
47742;BME280;33504;52.066;6.096;2024-03-06T10:25:34;102259.56;;;10.47;48.22
47742;BME280;33504;52.066;6.096;2024-03-06T10:28:04;102261.29;;;10.48;48.48
47742;BME280;33504;52.066;6.096;2024-03-06T10:30:32;102264.05;;;10.61;48.46
47742;BME280;33504;52.066;6.096;2024-03-06T10:32:59;102265.01;;;10.69;48.61
47742;BME280;33504;52.066;6.096;2024-03-06T10:35:27;102260.95;;;10.71;48.41
47742;BME280;33504;52.066;6.096;2024-03-06T10:37:55;102260.68;;;10.91;48.33
47742;BME280;33504;52.066;6.096;2024-03-06T10:40:23;102260.44;;;10.59;48.29
47742;BME280;33504;52.066;6.096;2024-03-06T10:42:50;102262.03;;;10.68;48.16
47742;BME280;33504;52.066;6.096;2024-03-06T10:45:19;102265.98;;;10.69;47.79
47742;BME280;33504;52.066;6.096;2024-03-06T10:47:49;102262.65;;;10.62;47.87
47742;BME280;33504;52.066;6.096;2024-03-06T10:50:18;102265.37;;;10.87;48.19
47742;BME280;33504;52.066;6.096;2024-03-06T10:52:46;102266.03;;;10.79;48.33
47742;BME280;33504;52.066;6.096;2024-03-06T10:55:15;102271.74;;;10.94;48.03
47742;BME280;33504;52.066;6.096;2024-03-06T10:57:43;102272.87;;;10.91;47.69
47742;BME280;33504;52.066;6.096;2024-03-06T11:00:12;102271.64;;;10.75;48.34
47742;BME280;33504;52.066;6.096;2024-03-06T11:02:40;102271.37;;;10.17;49.24
47742;BME280;33504;52.066;6.096;2024-03-06T11:05:08;102270.43;;;10.77;48.72
47742;BME280;33504;52.066;6.096;2024-03-06T11:07:36;102271.01;;;10.47;48.76
47742;BME280;33504;52.066;6.096;2024-03-06T11:10:03;102276.72;;;10.75;48.91
47742;BME280;33504;52.066;6.096;2024-03-06T11:12:35;102279.10;;;10.47;48.54
47742;BME280;33504;52.066;6.096;2024-03-06T11:15:09;102281.37;;;10.98;48.89
47742;BME280;33504;52.066;6.096;2024-03-06T11:17:36;102282.60;;;10.95;48.22
47742;BME280;33504;52.066;6.096;2024-03-06T11:20:16;102283.90;;;11.19;48.37
47742;BME280;33504;52.066;6.096;2024-03-06T11:23:16;102280.80;;;11.89;47.99
47742;BME280;33504;52.066;6.096;2024-03-06T11:26:16;102282.37;;;11.64;48.19
47742;BME280;33504;52.066;6.096;2024-03-06T11:28:44;102281.52;;;11.22;47.90
47742;BME280;33504;52.066;6.096;2024-03-06T11:31:11;102282.94;;;11.43;47.73
47742;BME280;33504;52.066;6.096;2024-03-06T11:33:40;102284.60;;;11.35;47.67
47742;BME280;33504;52.066;6.096;2024-03-06T11:36:16;102287.84;;;11.46;47.48
47742;BME280;33504;52.066;6.096;2024-03-06T11:38:51;102289.49;;;11.56;47.27
47742;BME280;33504;52.066;6.096;2024-03-06T11:41:18;102291.25;;;11.67;47.39
47742;BME280;33504;52.066;6.096;2024-03-06T11:43:45;102294.45;;;11.71;47.19
47742;BME280;33504;52.066;6.096;2024-03-06T11:46:15;102299.26;;;11.97;47.14
47742;BME280;33504;52.066;6.096;2024-03-06T11:48:42;102301.29;;;11.85;46.93
47742;BME280;33504;52.066;6.096;2024-03-06T11:51:09;102300.55;;;12.26;46.29
47742;BME280;33504;52.066;6.096;2024-03-06T11:53:36;102301.79;;;12.16;46.26
47742;BME280;33504;52.066;6.096;2024-03-06T11:56:06;102298.90;;;12.55;45.61
47742;BME280;33504;52.066;6.096;2024-03-06T11:58:33;102299.18;;;12.58;44.65
47742;BME280;33504;52.066;6.096;2024-03-06T12:01:00;102301.27;;;12.74;44.97
47742;BME280;33504;52.066;6.096;2024-03-06T12:03:27;102302.16;;;12.85;45.41
47742;BME280;33504;52.066;6.096;2024-03-06T12:05:55;102297.83;;;13.65;44.55
47742;BME280;33504;52.066;6.096;2024-03-06T12:08:22;102297.87;;;14.66;44.25
47742;BME280;33504;52.066;6.096;2024-03-06T12:10:49;102298.60;;;15.55;42.29
47742;BME280;33504;52.066;6.096;2024-03-06T12:13:17;102296.21;;;15.56;39.88
47742;BME280;33504;52.066;6.096;2024-03-06T12:15:44;102297.83;;;15.87;39.47
47742;BME280;33504;52.066;6.096;2024-03-06T12:18:11;102305.13;;;15.91;39.20
47742;BME280;33504;52.066;6.096;2024-03-06T12:20:41;102305.31;;;16.32;38.61
47742;BME280;33504;52.066;6.096;2024-03-06T12:23:08;102306.99;;;15.92;38.94
47742;BME280;33504;52.066;6.096;2024-03-06T12:25:35;102302.71;;;15.98;38.80
47742;BME280;33504;52.066;6.096;2024-03-06T12:28:07;102301.92;;;14.55;40.46
47742;BME280;33504;52.066;6.096;2024-03-06T12:30:40;102302.42;;;15.41;40.03
47742;BME280;33504;52.066;6.096;2024-03-06T12:33:07;102301.67;;;15.27;40.07
47742;BME280;33504;52.066;6.096;2024-03-06T12:35:37;102301.78;;;15.17;39.65
47742;BME280;33504;52.066;6.096;2024-03-06T12:38:12;102299.13;;;15.28;39.57
47742;BME280;33504;52.066;6.096;2024-03-06T12:40:39;102297.20;;;16.04;39.35
47742;BME280;33504;52.066;6.096;2024-03-06T12:43:06;102298.76;;;16.06;39.39
47742;BME280;33504;52.066;6.096;2024-03-06T12:45:34;102297.26;;;16.56;37.29
47742;BME280;33504;52.066;6.096;2024-03-06T12:48:01;102296.34;;;16.94;37.71
47742;BME280;33504;52.066;6.096;2024-03-06T12:50:29;102290.33;;;16.83;36.42
47742;BME280;33504;52.066;6.096;2024-03-06T12:52:56;102288.10;;;17.02;37.33
47742;BME280;33504;52.066;6.096;2024-03-06T12:55:23;102286.11;;;17.28;36.67
47742;BME280;33504;52.066;6.096;2024-03-06T12:57:50;102285.61;;;17.25;35.37